SIB1743 USSS-UNNT
Flight info
| Callsign | SIB1743 |
|---|---|
| Flight time | N/A |
| Altitude | 37000 |
| Route | ANAT6C ANATU P135 GIBUL P983 TINRI T448 RUBOR A300 ML R814 SZ W1 GOLIM GOLI1K |
| Aircraft | B37M/M-V/N |
Departure
| Time | 2026-04-27 11:11 |
|---|---|
| Airport | Koltsovo Airport (USSS) |
Arrival
| Time | N/A |
|---|---|
| Airport | Novosibirsk Tolmachevo Airport (UNNT) |
| Time | Latitude | Longitude | Altitude | Speed | Heading |
|---|---|---|---|---|---|
| 2026-04-27 10:40 | 56.74935 | 60.79833 | 751 ft | 0 kts | 0° |
| 2026-04-27 11:01 | 56.74934 | 60.79833 | 750 ft | 1 kts | 1° |
| 2026-04-27 11:01 | 56.74920 | 60.79834 | 750 ft | 2 kts | 359° |
| 2026-04-27 11:02 | 56.74905 | 60.79834 | 750 ft | 2 kts | 0° |
| 2026-04-27 11:02 | 56.74890 | 60.79834 | 749 ft | 2 kts | 360° |
| 2026-04-27 11:02 | 56.74874 | 60.79834 | 749 ft | 2 kts | 0° |
| 2026-04-27 11:02 | 56.74862 | 60.79826 | 749 ft | 2 kts | 48° |
| 2026-04-27 11:03 | 56.74852 | 60.79808 | 748 ft | 2 kts | 38° |
| 2026-04-27 11:03 | 56.74840 | 60.79791 | 748 ft | 2 kts | 40° |
| 2026-04-27 11:03 | 56.74828 | 60.79775 | 747 ft | 2 kts | 9° |
| 2026-04-27 11:03 | 56.74813 | 60.79776 | 747 ft | 2 kts | 357° |
| 2026-04-27 11:04 | 56.74798 | 60.79776 | 747 ft | 2 kts | 2° |
| 2026-04-27 11:04 | 56.74786 | 60.79776 | 746 ft | 0 kts | 360° |
| 2026-04-27 11:06 | 56.74826 | 60.79785 | 747 ft | 8 kts | 24° |
| 2026-04-27 11:06 | 56.74850 | 60.79900 | 749 ft | 13 kts | 84° |
| 2026-04-27 11:06 | 56.74849 | 60.80085 | 750 ft | 10 kts | 98° |
| 2026-04-27 11:07 | 56.74793 | 60.80141 | 749 ft | 11 kts | 189° |
| 2026-04-27 11:07 | 56.74699 | 60.80138 | 747 ft | 12 kts | 174° |
| 2026-04-27 11:07 | 56.74657 | 60.80265 | 748 ft | 14 kts | 91° |
| 2026-04-27 11:07 | 56.74657 | 60.80469 | 749 ft | 18 kts | 91° |
| 2026-04-27 11:08 | 56.74657 | 60.80718 | 750 ft | 21 kts | 90° |
| 2026-04-27 11:08 | 56.74655 | 60.81005 | 752 ft | 24 kts | 93° |
| 2026-04-27 11:08 | 56.74645 | 60.81330 | 758 ft | 26 kts | 83° |
| 2026-04-27 11:08 | 56.74655 | 60.81688 | 761 ft | 29 kts | 89° |
| 2026-04-27 11:09 | 56.74656 | 60.81994 | 765 ft | 15 kts | 90° |
| 2026-04-27 11:09 | 56.74649 | 60.82155 | 765 ft | 10 kts | 114° |
| 2026-04-27 11:09 | 56.74586 | 60.82206 | 762 ft | 11 kts | 168° |
| 2026-04-27 11:09 | 56.74501 | 60.82217 | 758 ft | 10 kts | 181° |
| 2026-04-27 11:10 | 56.74476 | 60.82145 | 757 ft | 0 kts | 266° |
| 2026-04-27 11:10 | 56.74474 | 60.81760 | 754 ft | 73 kts | 270° |
| 2026-04-27 11:10 | 56.74476 | 60.80265 | 747 ft | 157 kts | 267° |
| 2026-04-27 11:11 | 56.74507 | 60.78001 | 1162 ft | 193 kts | 269° |
| 2026-04-27 11:11 | 56.74610 | 60.75491 | 1873 ft | 206 kts | 272° |
| 2026-04-27 11:11 | 56.74734 | 60.72900 | 2159 ft | 215 kts | 269° |
| 2026-04-27 11:11 | 56.74735 | 60.70121 | 1949 ft | 227 kts | 263° |
| 2026-04-27 11:12 | 56.74589 | 60.67404 | 2073 ft | 205 kts | 260° |
| 2026-04-27 11:12 | 56.74496 | 60.64924 | 2404 ft | 191 kts | 264° |
| 2026-04-27 11:12 | 56.74461 | 60.62461 | 2777 ft | 199 kts | 263° |
| 2026-04-27 11:12 | 56.73967 | 60.60160 | 3144 ft | 196 kts | 221° |
| 2026-04-27 11:13 | 56.72788 | 60.59175 | 3526 ft | 193 kts | 180° |
| 2026-04-27 11:13 | 56.71483 | 60.59797 | 3947 ft | 200 kts | 154° |
| 2026-04-27 11:13 | 56.70473 | 60.61601 | 4315 ft | 210 kts | 122° |
| 2026-04-27 11:13 | 56.70214 | 60.64216 | 4672 ft | 225 kts | 84° |
| 2026-04-27 11:14 | 56.70697 | 60.66869 | 5064 ft | 220 kts | 68° |
| 2026-04-27 11:14 | 56.71357 | 60.69437 | 5453 ft | 227 kts | 69° |
| 2026-04-27 11:14 | 56.71981 | 60.72117 | 5820 ft | 231 kts | 71° |
| 2026-04-27 11:14 | 56.72551 | 60.74869 | 6200 ft | 235 kts | 72° |
| 2026-04-27 11:15 | 56.73117 | 60.77616 | 6557 ft | 231 kts | 72° |
| 2026-04-27 11:15 | 56.73698 | 60.80354 | 6919 ft | 234 kts | 72° |
| 2026-04-27 11:15 | 56.74302 | 60.83225 | 7001 ft | 246 kts | 72° |
| 2026-04-27 11:15 | 56.75004 | 60.85941 | 6951 ft | 240 kts | 52° |
| 2026-04-27 11:16 | 56.76379 | 60.87555 | 7147 ft | 235 kts | 12° |
| 2026-04-27 11:16 | 56.78027 | 60.88038 | 7419 ft | 249 kts | 7° |
| 2026-04-27 11:16 | 56.79789 | 60.88692 | 7700 ft | 271 kts | 15° |
| 2026-04-27 11:16 | 56.81620 | 60.89890 | 7970 ft | 287 kts | 21° |
| 2026-04-27 11:17 | 56.83478 | 60.91340 | 8209 ft | 295 kts | 22° |
| 2026-04-27 11:17 | 56.85366 | 60.92831 | 8457 ft | 295 kts | 22° |
| 2026-04-27 11:17 | 56.87191 | 60.94453 | 8693 ft | 296 kts | 31° |
| 2026-04-27 11:17 | 56.88834 | 60.96783 | 8943 ft | 298 kts | 45° |
| 2026-04-27 11:18 | 56.90096 | 60.99754 | 9194 ft | 297 kts | 59° |
| 2026-04-27 11:18 | 56.91065 | 61.03064 | 9451 ft | 298 kts | 66° |
| 2026-04-27 11:18 | 56.91908 | 61.06558 | 9705 ft | 300 kts | 68° |
| 2026-04-27 11:18 | 56.92695 | 61.10079 | 9953 ft | 302 kts | 69° |
| 2026-04-27 11:19 | 56.93477 | 61.13670 | 10205 ft | 302 kts | 69° |
| 2026-04-27 11:19 | 56.94254 | 61.17222 | 10453 ft | 303 kts | 69° |
| 2026-04-27 11:19 | 56.95039 | 61.20790 | 10702 ft | 305 kts | 69° |
| 2026-04-27 11:19 | 56.95855 | 61.24400 | 10953 ft | 306 kts | 68° |
| 2026-04-27 11:20 | 56.96690 | 61.27989 | 11202 ft | 308 kts | 67° |
| 2026-04-27 11:20 | 56.97541 | 61.31603 | 11453 ft | 309 kts | 67° |
| 2026-04-27 11:20 | 56.98397 | 61.35221 | 11702 ft | 311 kts | 67° |
| 2026-04-27 11:20 | 56.99250 | 61.38829 | 11950 ft | 312 kts | 66° |
| 2026-04-27 11:21 | 57.00120 | 61.42509 | 12201 ft | 314 kts | 66° |
| 2026-04-27 11:21 | 57.00988 | 61.46186 | 12450 ft | 315 kts | 67° |
| 2026-04-27 11:21 | 57.01853 | 61.49853 | 12698 ft | 317 kts | 67° |
| 2026-04-27 11:21 | 57.02732 | 61.53587 | 12949 ft | 319 kts | 67° |
| 2026-04-27 11:22 | 57.03612 | 61.57333 | 13199 ft | 320 kts | 67° |
| 2026-04-27 11:22 | 57.04493 | 61.61088 | 13448 ft | 322 kts | 67° |
| 2026-04-27 11:22 | 57.05378 | 61.64870 | 13698 ft | 323 kts | 67° |
| 2026-04-27 11:22 | 57.06269 | 61.68676 | 13949 ft | 324 kts | 68° |
| 2026-04-27 11:23 | 57.07149 | 61.72442 | 14197 ft | 326 kts | 68° |
| 2026-04-27 11:23 | 57.08049 | 61.76296 | 14448 ft | 328 kts | 68° |
| 2026-04-27 11:23 | 57.08946 | 61.80150 | 14699 ft | 329 kts | 68° |
| 2026-04-27 11:23 | 57.09853 | 61.84058 | 14959 ft | 337 kts | 68° |
| 2026-04-27 11:24 | 57.10783 | 61.88071 | 15214 ft | 350 kts | 68° |
| 2026-04-27 11:24 | 57.11757 | 61.92276 | 15466 ft | 363 kts | 68° |
| 2026-04-27 11:24 | 57.12762 | 61.96618 | 15717 ft | 375 kts | 68° |
| 2026-04-27 11:24 | 57.13723 | 62.01157 | 15965 ft | 385 kts | 73° |
| 2026-04-27 11:25 | 57.14499 | 62.05950 | 16217 ft | 392 kts | 76° |
| 2026-04-27 11:25 | 57.15229 | 62.10766 | 16460 ft | 394 kts | 76° |
| 2026-04-27 11:25 | 57.15966 | 62.15604 | 16708 ft | 394 kts | 75° |
| 2026-04-27 11:25 | 57.16712 | 62.20459 | 16957 ft | 395 kts | 75° |
| 2026-04-27 11:26 | 57.17469 | 62.25366 | 17209 ft | 397 kts | 75° |
| 2026-04-27 11:26 | 57.18224 | 62.30253 | 17458 ft | 399 kts | 75° |
| 2026-04-27 11:26 | 57.18982 | 62.35162 | 17707 ft | 400 kts | 75° |
| 2026-04-27 11:26 | 57.19738 | 62.40075 | 17956 ft | 402 kts | 75° |
| 2026-04-27 11:27 | 57.20508 | 62.45083 | 18208 ft | 403 kts | 75° |
| 2026-04-27 11:27 | 57.21267 | 62.50026 | 18457 ft | 405 kts | 75° |
| 2026-04-27 11:27 | 57.22038 | 62.55070 | 18710 ft | 407 kts | 75° |
| 2026-04-27 11:27 | 57.22801 | 62.60071 | 18959 ft | 408 kts | 75° |
| 2026-04-27 11:28 | 57.23571 | 62.65128 | 19211 ft | 410 kts | 76° |
| 2026-04-27 11:28 | 57.24352 | 62.70231 | 19462 ft | 411 kts | 76° |
| 2026-04-27 11:28 | 57.25124 | 62.75288 | 19711 ft | 413 kts | 76° |
| 2026-04-27 11:28 | 57.25900 | 62.80393 | 19961 ft | 414 kts | 76° |
| 2026-04-27 11:29 | 57.26671 | 62.85486 | 20210 ft | 416 kts | 76° |
| 2026-04-27 11:29 | 57.27447 | 62.90636 | 20460 ft | 417 kts | 76° |
| 2026-04-27 11:29 | 57.28233 | 62.95868 | 20713 ft | 418 kts | 76° |
| 2026-04-27 11:29 | 57.29007 | 63.01047 | 20963 ft | 419 kts | 76° |
| 2026-04-27 11:30 | 57.29776 | 63.06204 | 21212 ft | 420 kts | 76° |
| 2026-04-27 11:30 | 57.30555 | 63.11453 | 21464 ft | 421 kts | 76° |
| 2026-04-27 11:30 | 57.31324 | 63.16645 | 21713 ft | 423 kts | 76° |
| 2026-04-27 11:30 | 57.32104 | 63.21937 | 21965 ft | 425 kts | 76° |
| 2026-04-27 11:31 | 57.32885 | 63.27243 | 22217 ft | 427 kts | 76° |
| 2026-04-27 11:31 | 57.33663 | 63.32548 | 22467 ft | 429 kts | 76° |
| 2026-04-27 11:31 | 57.34436 | 63.37833 | 22716 ft | 430 kts | 76° |
| 2026-04-27 11:31 | 57.35223 | 63.43235 | 22968 ft | 432 kts | 76° |
| 2026-04-27 11:32 | 57.35997 | 63.48565 | 23217 ft | 434 kts | 76° |
| 2026-04-27 11:32 | 57.36784 | 63.54005 | 23469 ft | 436 kts | 76° |
| 2026-04-27 11:32 | 57.37562 | 63.59390 | 23715 ft | 437 kts | 76° |
| 2026-04-27 11:32 | 57.38331 | 63.64829 | 23967 ft | 439 kts | 79° |
| 2026-04-27 11:33 | 57.38680 | 63.70499 | 24215 ft | 437 kts | 92° |
| 2026-04-27 11:33 | 57.38534 | 63.76081 | 24474 ft | 435 kts | 99° |
| 2026-04-27 11:33 | 57.38135 | 63.81636 | 24724 ft | 436 kts | 103° |
| 2026-04-27 11:33 | 57.37605 | 63.87119 | 24971 ft | 437 kts | 105° |
| 2026-04-27 11:34 | 57.36990 | 63.92651 | 25222 ft | 438 kts | 106° |
| 2026-04-27 11:34 | 57.36331 | 63.98112 | 25470 ft | 439 kts | 107° |
| 2026-04-27 11:34 | 57.35632 | 64.03612 | 25719 ft | 441 kts | 107° |
| 2026-04-27 11:34 | 57.34895 | 64.09203 | 25973 ft | 442 kts | 108° |
| 2026-04-27 11:35 | 57.34155 | 64.14685 | 26221 ft | 444 kts | 108° |
| 2026-04-27 11:35 | 57.33391 | 64.20249 | 26614 ft | 441 kts | 108° |
| 2026-04-27 11:35 | 57.32664 | 64.25516 | 27717 ft | 419 kts | 108° |
| 2026-04-27 11:35 | 57.31958 | 64.30588 | 28618 ft | 403 kts | 109° |
| 2026-04-27 11:36 | 57.30505 | 64.40792 | 28931 ft | 411 kts | 109° |
| 2026-04-27 11:36 | 57.29776 | 64.45854 | 29156 ft | 413 kts | 109° |
| 2026-04-27 11:36 | 57.29037 | 64.50964 | 29381 ft | 415 kts | 109° |
| 2026-04-27 11:37 | 57.28281 | 64.56107 | 29608 ft | 417 kts | 109° |
| 2026-04-27 11:37 | 57.27500 | 64.61293 | 29835 ft | 418 kts | 109° |
| 2026-04-27 11:37 | 57.26727 | 64.66443 | 30060 ft | 420 kts | 110° |
| 2026-04-27 11:37 | 57.25941 | 64.71710 | 30288 ft | 421 kts | 110° |
| 2026-04-27 11:38 | 57.25173 | 64.76861 | 30512 ft | 422 kts | 110° |
| 2026-04-27 11:38 | 57.24387 | 64.82140 | 30739 ft | 424 kts | 110° |
| 2026-04-27 11:38 | 57.23614 | 64.87325 | 30962 ft | 425 kts | 110° |
| 2026-04-27 11:38 | 57.22831 | 64.92574 | 31187 ft | 425 kts | 110° |
| 2026-04-27 11:39 | 57.22043 | 64.97843 | 31413 ft | 426 kts | 110° |
| 2026-04-27 11:39 | 57.21251 | 65.03132 | 31639 ft | 427 kts | 110° |
| 2026-04-27 11:39 | 57.20462 | 65.08380 | 31863 ft | 427 kts | 110° |
| 2026-04-27 11:39 | 57.19677 | 65.13599 | 32086 ft | 428 kts | 110° |
| 2026-04-27 11:40 | 57.18880 | 65.18870 | 32312 ft | 428 kts | 110° |
| 2026-04-27 11:40 | 57.18080 | 65.24152 | 32537 ft | 428 kts | 110° |
| 2026-04-27 11:40 | 57.17364 | 65.29497 | 32762 ft | 431 kts | 107° |
| 2026-04-27 11:40 | 57.16801 | 65.34946 | 32989 ft | 433 kts | 103° |
| 2026-04-27 11:41 | 57.16383 | 65.40448 | 33215 ft | 434 kts | 102° |
| 2026-04-27 11:41 | 57.16013 | 65.45951 | 33440 ft | 434 kts | 101° |
| 2026-04-27 11:41 | 57.15654 | 65.51424 | 33664 ft | 434 kts | 101° |
| 2026-04-27 11:41 | 57.15295 | 65.56934 | 33890 ft | 433 kts | 101° |
| 2026-04-27 11:42 | 57.14935 | 65.62478 | 34117 ft | 433 kts | 101° |
| 2026-04-27 11:42 | 57.14578 | 65.67981 | 34343 ft | 432 kts | 102° |
| 2026-04-27 11:42 | 57.14225 | 65.73447 | 34567 ft | 431 kts | 102° |
| 2026-04-27 11:42 | 57.13872 | 65.78896 | 34790 ft | 430 kts | 102° |
| 2026-04-27 11:43 | 57.13515 | 65.84380 | 35016 ft | 429 kts | 102° |
| 2026-04-27 11:43 | 57.13163 | 65.89759 | 35238 ft | 428 kts | 102° |
| 2026-04-27 11:43 | 57.12806 | 65.95177 | 35464 ft | 426 kts | 102° |
| 2026-04-27 11:43 | 57.12447 | 66.00593 | 35689 ft | 425 kts | 102° |
| 2026-04-27 11:44 | 57.12087 | 66.05972 | 35913 ft | 423 kts | 102° |
| 2026-04-27 11:44 | 57.11729 | 66.11289 | 36138 ft | 421 kts | 102° |
| 2026-04-27 11:44 | 57.11364 | 66.16632 | 36363 ft | 419 kts | 102° |
| 2026-04-27 11:44 | 57.10974 | 66.21960 | 36501 ft | 419 kts | 102° |
| 2026-04-27 11:45 | 57.10328 | 66.30814 | 36589 ft | 423 kts | 102° |
| 2026-04-27 11:45 | 57.09426 | 66.43382 | 36712 ft | 429 kts | 102° |
| 2026-04-27 11:46 | 57.08643 | 66.54340 | 36819 ft | 434 kts | 102° |
| 2026-04-27 11:46 | 57.07849 | 66.65395 | 36922 ft | 439 kts | 102° |
| 2026-04-27 11:47 | 57.07046 | 66.76570 | 37022 ft | 444 kts | 102° |
| 2026-04-27 11:47 | 57.06228 | 66.87832 | 37118 ft | 444 kts | 102° |
| 2026-04-27 11:48 | 57.05342 | 66.99001 | 37129 ft | 445 kts | 104° |
| 2026-04-27 11:48 | 57.04342 | 67.10252 | 37129 ft | 447 kts | 103° |
| 2026-04-27 11:49 | 57.03356 | 67.21484 | 37128 ft | 449 kts | 103° |
| 2026-04-27 11:49 | 57.02365 | 67.32819 | 37128 ft | 450 kts | 103° |
| 2026-04-27 11:50 | 57.01369 | 67.44186 | 37128 ft | 452 kts | 103° |
| 2026-04-27 11:50 | 57.00369 | 67.55547 | 37128 ft | 454 kts | 103° |
| 2026-04-27 11:51 | 56.99353 | 67.67001 | 37128 ft | 455 kts | 103° |
| 2026-04-27 11:52 | 56.97821 | 67.84131 | 37166 ft | 456 kts | 103° |
| 2026-04-27 11:52 | 56.96781 | 67.95594 | 37203 ft | 456 kts | 103° |
| 2026-04-27 11:53 | 56.95731 | 68.07040 | 37209 ft | 457 kts | 103° |
| 2026-04-27 11:53 | 56.94662 | 68.18555 | 37209 ft | 459 kts | 103° |
| 2026-04-27 11:54 | 56.93583 | 68.30067 | 37209 ft | 460 kts | 103° |
| 2026-04-27 11:54 | 56.92490 | 68.41601 | 37209 ft | 461 kts | 103° |
| 2026-04-27 11:55 | 56.91386 | 68.53133 | 37210 ft | 462 kts | 103° |
| 2026-04-27 11:55 | 56.90274 | 68.64634 | 37209 ft | 463 kts | 103° |
| 2026-04-27 11:56 | 56.89138 | 68.76289 | 37209 ft | 464 kts | 104° |
| 2026-04-27 11:56 | 56.87996 | 68.87900 | 37209 ft | 465 kts | 104° |
| 2026-04-27 11:57 | 56.86845 | 68.99458 | 37209 ft | 466 kts | 104° |
| 2026-04-27 11:57 | 56.85674 | 69.11094 | 37210 ft | 467 kts | 104° |
| 2026-04-27 11:58 | 56.84486 | 69.22772 | 37208 ft | 468 kts | 104° |
| 2026-04-27 11:58 | 56.83291 | 69.34415 | 37208 ft | 469 kts | 104° |
| 2026-04-27 11:59 | 56.82075 | 69.46139 | 37209 ft | 469 kts | 104° |
| 2026-04-27 11:59 | 56.80851 | 69.57832 | 37209 ft | 470 kts | 104° |
| 2026-04-27 12:00 | 56.79611 | 69.69559 | 37209 ft | 471 kts | 105° |
| 2026-04-27 12:00 | 56.78399 | 69.80960 | 37208 ft | 471 kts | 104° |
| 2026-04-27 12:01 | 56.77137 | 69.92699 | 37209 ft | 471 kts | 104° |
| 2026-04-27 12:01 | 56.75871 | 70.04346 | 37209 ft | 472 kts | 105° |
| 2026-04-27 12:02 | 56.74586 | 70.16058 | 37209 ft | 472 kts | 105° |
| 2026-04-27 12:02 | 56.73220 | 70.27792 | 37208 ft | 471 kts | 108° |
| 2026-04-27 12:03 | 56.71599 | 70.39259 | 37208 ft | 471 kts | 107° |
| 2026-04-27 12:03 | 56.70064 | 70.50841 | 37209 ft | 472 kts | 107° |
| 2026-04-27 12:04 | 56.68575 | 70.62453 | 37208 ft | 473 kts | 106° |
| 2026-04-27 12:04 | 56.67835 | 70.68302 | 37106 ft | 476 kts | 107° |
| 2026-04-27 12:04 | 56.67095 | 70.74172 | 37042 ft | 477 kts | 107° |
| 2026-04-27 12:05 | 56.65628 | 70.85840 | 37046 ft | 476 kts | 107° |
| 2026-04-27 12:05 | 56.64153 | 70.97553 | 37047 ft | 476 kts | 107° |
| 2026-04-27 12:06 | 56.62673 | 71.09270 | 37047 ft | 476 kts | 107° |
| 2026-04-27 12:06 | 56.61184 | 71.20978 | 37047 ft | 475 kts | 107° |
| 2026-04-27 12:07 | 56.59692 | 71.32630 | 37047 ft | 475 kts | 107° |
| 2026-04-27 12:07 | 56.58197 | 71.44222 | 37047 ft | 475 kts | 107° |
| 2026-04-27 12:08 | 56.56675 | 71.55918 | 37046 ft | 475 kts | 107° |
| 2026-04-27 12:08 | 56.55150 | 71.67563 | 37047 ft | 475 kts | 108° |
| 2026-04-27 12:09 | 56.53629 | 71.79101 | 37046 ft | 474 kts | 108° |
| 2026-04-27 12:09 | 56.52087 | 71.90696 | 37047 ft | 474 kts | 108° |
| 2026-04-27 12:10 | 56.50531 | 72.02300 | 37047 ft | 473 kts | 108° |
| 2026-04-27 12:10 | 56.48971 | 72.13845 | 37047 ft | 473 kts | 108° |
| 2026-04-27 12:11 | 56.47401 | 72.25366 | 37047 ft | 473 kts | 108° |
| 2026-04-27 12:11 | 56.45824 | 72.36849 | 37047 ft | 473 kts | 108° |
| 2026-04-27 12:12 | 56.44229 | 72.48381 | 37047 ft | 473 kts | 108° |
| 2026-04-27 12:12 | 56.42630 | 72.59849 | 37047 ft | 473 kts | 108° |
| 2026-04-27 12:13 | 56.41019 | 72.71323 | 37047 ft | 472 kts | 108° |
| 2026-04-27 12:13 | 56.39403 | 72.82770 | 37047 ft | 472 kts | 108° |
| 2026-04-27 12:14 | 56.37768 | 72.94254 | 37047 ft | 472 kts | 108° |
| 2026-04-27 12:14 | 56.36136 | 73.05626 | 37046 ft | 471 kts | 109° |
| 2026-04-27 12:15 | 56.34477 | 73.17094 | 37047 ft | 471 kts | 109° |
| 2026-04-27 12:15 | 56.32820 | 73.28469 | 37047 ft | 471 kts | 109° |
| 2026-04-27 12:16 | 56.31144 | 73.39885 | 37047 ft | 472 kts | 109° |
| 2026-04-27 12:16 | 56.29471 | 73.51204 | 37047 ft | 472 kts | 109° |
| 2026-04-27 12:17 | 56.27777 | 73.62581 | 37047 ft | 472 kts | 109° |
| 2026-04-27 12:17 | 56.26066 | 73.74011 | 37047 ft | 472 kts | 110° |
| 2026-04-27 12:18 | 56.24355 | 73.85365 | 37046 ft | 471 kts | 110° |
| 2026-04-27 12:18 | 56.22606 | 73.96661 | 37045 ft | 469 kts | 113° |
| 2026-04-27 12:19 | 56.20403 | 74.07623 | 37047 ft | 468 kts | 114° |
| 2026-04-27 12:19 | 56.18257 | 74.18607 | 37192 ft | 465 kts | 113° |
| 2026-04-27 12:20 | 56.16213 | 74.29546 | 37237 ft | 464 kts | 112° |
| 2026-04-27 12:20 | 56.14178 | 74.40564 | 37237 ft | 465 kts | 112° |
| 2026-04-27 12:21 | 56.12167 | 74.51533 | 37236 ft | 465 kts | 112° |
| 2026-04-27 12:21 | 56.10151 | 74.62539 | 37206 ft | 467 kts | 112° |
| 2026-04-27 12:22 | 56.08120 | 74.73624 | 37205 ft | 467 kts | 113° |
| 2026-04-27 12:22 | 56.06101 | 74.84615 | 37131 ft | 469 kts | 113° |
| 2026-04-27 12:22 | 56.05074 | 74.90170 | 36885 ft | 475 kts | 113° |
| 2026-04-27 12:23 | 56.04034 | 74.95788 | 36639 ft | 480 kts | 113° |
| 2026-04-27 12:23 | 56.02991 | 75.01409 | 36423 ft | 482 kts | 112° |
| 2026-04-27 12:23 | 56.01927 | 75.07132 | 36169 ft | 483 kts | 112° |
| 2026-04-27 12:23 | 56.00861 | 75.12845 | 35916 ft | 484 kts | 112° |
| 2026-04-27 12:24 | 55.99800 | 75.18513 | 35667 ft | 484 kts | 112° |
| 2026-04-27 12:24 | 55.98738 | 75.24171 | 35423 ft | 484 kts | 112° |
| 2026-04-27 12:24 | 55.97664 | 75.29881 | 35165 ft | 481 kts | 112° |
| 2026-04-27 12:24 | 55.96616 | 75.35447 | 34901 ft | 468 kts | 112° |
| 2026-04-27 12:25 | 55.95603 | 75.40814 | 34650 ft | 455 kts | 112° |
| 2026-04-27 12:25 | 55.94600 | 75.46104 | 34397 ft | 443 kts | 113° |
| 2026-04-27 12:25 | 55.93613 | 75.51275 | 34150 ft | 432 kts | 113° |
| 2026-04-27 12:25 | 55.93169 | 75.53593 | 34036 ft | 428 kts | 113° |
| 2026-04-27 12:26 | 55.92202 | 75.58608 | 33786 ft | 424 kts | 113° |
| 2026-04-27 12:26 | 55.91248 | 75.63534 | 33545 ft | 426 kts | 113° |
| 2026-04-27 12:26 | 55.90276 | 75.68557 | 33301 ft | 429 kts | 114° |
| 2026-04-27 12:26 | 55.89306 | 75.73583 | 33056 ft | 430 kts | 114° |
| 2026-04-27 12:27 | 55.88337 | 75.78593 | 32805 ft | 429 kts | 114° |
| 2026-04-27 12:27 | 55.87360 | 75.83637 | 32550 ft | 428 kts | 114° |
| 2026-04-27 12:27 | 55.86393 | 75.88605 | 32301 ft | 427 kts | 114° |
| 2026-04-27 12:27 | 55.85422 | 75.93587 | 32053 ft | 428 kts | 114° |
| 2026-04-27 12:28 | 55.84557 | 75.98008 | 31831 ft | 428 kts | 114° |
| 2026-04-27 12:28 | 55.83572 | 76.03038 | 31579 ft | 429 kts | 114° |
| 2026-04-27 12:28 | 55.82595 | 76.08012 | 31330 ft | 429 kts | 114° |
| 2026-04-27 12:28 | 55.81615 | 76.12991 | 31084 ft | 428 kts | 114° |
| 2026-04-27 12:29 | 55.80625 | 76.18012 | 30830 ft | 428 kts | 114° |
| 2026-04-27 12:29 | 55.79637 | 76.23003 | 30578 ft | 428 kts | 114° |
| 2026-04-27 12:29 | 55.78662 | 76.27917 | 30331 ft | 428 kts | 114° |
| 2026-04-27 12:29 | 55.77663 | 76.32938 | 30077 ft | 428 kts | 114° |
| 2026-04-27 12:30 | 55.76677 | 76.37882 | 29829 ft | 428 kts | 114° |
| 2026-04-27 12:30 | 55.75680 | 76.42865 | 29578 ft | 428 kts | 114° |
| 2026-04-27 12:30 | 55.74688 | 76.47816 | 29329 ft | 429 kts | 114° |
| 2026-04-27 12:30 | 55.73679 | 76.52844 | 29011 ft | 430 kts | 114° |
| 2026-04-27 12:31 | 55.72687 | 76.57776 | 28679 ft | 423 kts | 114° |
| 2026-04-27 12:31 | 55.71709 | 76.62616 | 28345 ft | 413 kts | 114° |
| 2026-04-27 12:31 | 55.70750 | 76.67332 | 28018 ft | 403 kts | 115° |
| 2026-04-27 12:31 | 55.69797 | 76.71989 | 27691 ft | 397 kts | 115° |
| 2026-04-27 12:32 | 55.68856 | 76.76561 | 27370 ft | 396 kts | 115° |
| 2026-04-27 12:32 | 55.67907 | 76.81168 | 27050 ft | 397 kts | 115° |
| 2026-04-27 12:32 | 55.66961 | 76.85757 | 26730 ft | 398 kts | 115° |
| 2026-04-27 12:32 | 55.66014 | 76.90359 | 26407 ft | 399 kts | 115° |
| 2026-04-27 12:33 | 55.65075 | 76.94923 | 26086 ft | 399 kts | 115° |
| 2026-04-27 12:33 | 55.64122 | 76.99544 | 25756 ft | 398 kts | 114° |
| 2026-04-27 12:33 | 55.63176 | 77.04118 | 25430 ft | 396 kts | 114° |
| 2026-04-27 12:33 | 55.62244 | 77.08618 | 25102 ft | 389 kts | 114° |
| 2026-04-27 12:34 | 55.61319 | 77.13068 | 24769 ft | 383 kts | 115° |
| 2026-04-27 12:34 | 55.60393 | 77.17477 | 24451 ft | 383 kts | 114° |
| 2026-04-27 12:34 | 55.59473 | 77.21854 | 24131 ft | 383 kts | 114° |
| 2026-04-27 12:34 | 55.58546 | 77.26269 | 23807 ft | 382 kts | 114° |
| 2026-04-27 12:35 | 55.57617 | 77.30687 | 23479 ft | 381 kts | 114° |
| 2026-04-27 12:35 | 55.56707 | 77.35012 | 23157 ft | 379 kts | 114° |
| 2026-04-27 12:35 | 55.55797 | 77.39339 | 22829 ft | 376 kts | 114° |
| 2026-04-27 12:35 | 55.54893 | 77.43623 | 22503 ft | 372 kts | 114° |
| 2026-04-27 12:36 | 55.53982 | 77.47915 | 22175 ft | 370 kts | 114° |
| 2026-04-27 12:36 | 55.53087 | 77.52113 | 21852 ft | 368 kts | 114° |
| 2026-04-27 12:36 | 55.52183 | 77.56350 | 21518 ft | 366 kts | 114° |
| 2026-04-27 12:36 | 55.51300 | 77.60484 | 21188 ft | 363 kts | 114° |
| 2026-04-27 12:37 | 55.50423 | 77.64588 | 20802 ft | 351 kts | 115° |
| 2026-04-27 12:37 | 55.49575 | 77.68520 | 20417 ft | 332 kts | 116° |
| 2026-04-27 12:37 | 55.48760 | 77.72237 | 20043 ft | 320 kts | 116° |
| 2026-04-27 12:37 | 55.47958 | 77.75871 | 19676 ft | 317 kts | 116° |
| 2026-04-27 12:38 | 55.47158 | 77.79518 | 19314 ft | 323 kts | 116° |
| 2026-04-27 12:38 | 55.46341 | 77.83197 | 18938 ft | 320 kts | 116° |
| 2026-04-27 12:38 | 55.45511 | 77.86786 | 18562 ft | 317 kts | 116° |
| 2026-04-27 12:38 | 55.44697 | 77.90383 | 18182 ft | 314 kts | 116° |
| 2026-04-27 12:39 | 55.43919 | 77.93930 | 17808 ft | 311 kts | 115° |
| 2026-04-27 12:39 | 55.43150 | 77.97428 | 17435 ft | 308 kts | 115° |
| 2026-04-27 12:39 | 55.42382 | 78.00925 | 17059 ft | 306 kts | 115° |
| 2026-04-27 12:39 | 55.41611 | 78.04435 | 16678 ft | 303 kts | 115° |
| 2026-04-27 12:40 | 55.40860 | 78.07851 | 16305 ft | 301 kts | 115° |
| 2026-04-27 12:40 | 55.40110 | 78.11263 | 15931 ft | 299 kts | 115° |
| 2026-04-27 12:40 | 55.39364 | 78.14657 | 15554 ft | 296 kts | 115° |
| 2026-04-27 12:40 | 55.38630 | 78.17983 | 15184 ft | 294 kts | 115° |
| 2026-04-27 12:41 | 55.37892 | 78.21326 | 14807 ft | 292 kts | 115° |
| 2026-04-27 12:41 | 55.37162 | 78.24662 | 14431 ft | 290 kts | 114° |
| 2026-04-27 12:41 | 55.36448 | 78.27978 | 14054 ft | 289 kts | 115° |
| 2026-04-27 12:41 | 55.35746 | 78.31274 | 13675 ft | 288 kts | 109° |
| 2026-04-27 12:42 | 55.35406 | 78.34755 | 13302 ft | 290 kts | 99° |
| 2026-04-27 12:42 | 55.35213 | 78.38249 | 12933 ft | 288 kts | 99° |
| 2026-04-27 12:42 | 55.35020 | 78.41730 | 12559 ft | 287 kts | 99° |
| 2026-04-27 12:42 | 55.34799 | 78.45235 | 12180 ft | 285 kts | 100° |
| 2026-04-27 12:43 | 55.34563 | 78.48657 | 11807 ft | 283 kts | 100° |
| 2026-04-27 12:43 | 55.34314 | 78.52092 | 11428 ft | 282 kts | 101° |
| 2026-04-27 12:43 | 55.34059 | 78.55463 | 11055 ft | 281 kts | 101° |
| 2026-04-27 12:43 | 55.33791 | 78.58861 | 10679 ft | 281 kts | 101° |
| 2026-04-27 12:44 | 55.33511 | 78.62238 | 10305 ft | 280 kts | 101° |
| 2026-04-27 12:44 | 55.33221 | 78.65632 | 9927 ft | 280 kts | 102° |
| 2026-04-27 12:44 | 55.32934 | 78.69021 | 9550 ft | 279 kts | 102° |
| 2026-04-27 12:44 | 55.32649 | 78.72374 | 9176 ft | 279 kts | 102° |
| 2026-04-27 12:45 | 55.32346 | 78.75715 | 8802 ft | 278 kts | 102° |
| 2026-04-27 12:45 | 55.32016 | 78.79089 | 8423 ft | 277 kts | 103° |
| 2026-04-27 12:45 | 55.31675 | 78.82378 | 8052 ft | 277 kts | 103° |
| 2026-04-27 12:45 | 55.31329 | 78.85747 | 7672 ft | 277 kts | 102° |
| 2026-04-27 12:46 | 55.31007 | 78.89060 | 7320 ft | 276 kts | 102° |
| 2026-04-27 12:46 | 55.30700 | 78.92390 | 7255 ft | 265 kts | 101° |
| 2026-04-27 12:46 | 55.30419 | 78.95560 | 7265 ft | 263 kts | 101° |
| 2026-04-27 12:46 | 55.30143 | 78.98743 | 7261 ft | 264 kts | 101° |
| 2026-04-27 12:47 | 55.29870 | 79.01955 | 7253 ft | 264 kts | 101° |
| 2026-04-27 12:47 | 55.29602 | 79.05110 | 7245 ft | 264 kts | 101° |
| 2026-04-27 12:47 | 55.29329 | 79.08321 | 7144 ft | 264 kts | 100° |
| 2026-04-27 12:47 | 55.29058 | 79.11509 | 7031 ft | 262 kts | 100° |
| 2026-04-27 12:48 | 55.28791 | 79.14641 | 7009 ft | 261 kts | 100° |
| 2026-04-27 12:48 | 55.28521 | 79.17781 | 7004 ft | 262 kts | 100° |
| 2026-04-27 12:48 | 55.28250 | 79.20943 | 6994 ft | 262 kts | 100° |
| 2026-04-27 12:48 | 55.27975 | 79.24139 | 6992 ft | 262 kts | 100° |
| 2026-04-27 12:49 | 55.27705 | 79.27258 | 6993 ft | 262 kts | 100° |
| 2026-04-27 12:49 | 55.27430 | 79.30441 | 6993 ft | 262 kts | 100° |
| 2026-04-27 12:49 | 55.27156 | 79.33583 | 6993 ft | 262 kts | 100° |
| 2026-04-27 12:49 | 55.26879 | 79.36764 | 6993 ft | 262 kts | 100° |
| 2026-04-27 12:50 | 55.26606 | 79.39894 | 6992 ft | 259 kts | 100° |
| 2026-04-27 12:50 | 55.26333 | 79.43000 | 6992 ft | 259 kts | 100° |
| 2026-04-27 12:50 | 55.26057 | 79.46124 | 6994 ft | 259 kts | 100° |
| 2026-04-27 12:50 | 55.25782 | 79.49246 | 6993 ft | 259 kts | 100° |
| 2026-04-27 12:51 | 55.25495 | 79.52398 | 6993 ft | 259 kts | 101° |
| 2026-04-27 12:51 | 55.25211 | 79.55518 | 6993 ft | 259 kts | 101° |
| 2026-04-27 12:51 | 55.24930 | 79.58646 | 6993 ft | 259 kts | 100° |
| 2026-04-27 12:51 | 55.24652 | 79.61748 | 6993 ft | 259 kts | 100° |
| 2026-04-27 12:52 | 55.24370 | 79.64881 | 6993 ft | 259 kts | 100° |
| 2026-04-27 12:52 | 55.24091 | 79.67992 | 6993 ft | 259 kts | 101° |
| 2026-04-27 12:52 | 55.23810 | 79.71114 | 6993 ft | 259 kts | 101° |
| 2026-04-27 12:52 | 55.23528 | 79.74237 | 6992 ft | 259 kts | 101° |
| 2026-04-27 12:53 | 55.22960 | 79.80492 | 6993 ft | 259 kts | 101° |
| 2026-04-27 12:53 | 55.22675 | 79.83608 | 6993 ft | 259 kts | 101° |
| 2026-04-27 12:53 | 55.22390 | 79.86730 | 6993 ft | 259 kts | 101° |
| 2026-04-27 12:54 | 55.22105 | 79.89834 | 6993 ft | 259 kts | 101° |
| 2026-04-27 12:54 | 55.21818 | 79.92948 | 6993 ft | 259 kts | 101° |
| 2026-04-27 12:54 | 55.21531 | 79.96069 | 6993 ft | 259 kts | 101° |
| 2026-04-27 12:54 | 55.21243 | 79.99176 | 6993 ft | 259 kts | 101° |
| 2026-04-27 12:55 | 55.20951 | 80.02322 | 6993 ft | 259 kts | 101° |
| 2026-04-27 12:55 | 55.20661 | 80.05436 | 6993 ft | 259 kts | 101° |
| 2026-04-27 12:55 | 55.20372 | 80.08533 | 6993 ft | 259 kts | 101° |
| 2026-04-27 12:55 | 55.20078 | 80.11669 | 6993 ft | 259 kts | 101° |
| 2026-04-27 12:56 | 55.19788 | 80.14764 | 6993 ft | 259 kts | 101° |
| 2026-04-27 12:56 | 55.19495 | 80.17869 | 6993 ft | 259 kts | 101° |
| 2026-04-27 12:56 | 55.19200 | 80.20994 | 6993 ft | 259 kts | 101° |
| 2026-04-27 12:56 | 55.18907 | 80.24094 | 6993 ft | 259 kts | 101° |
| 2026-04-27 12:57 | 55.18613 | 80.27189 | 6993 ft | 259 kts | 101° |
| 2026-04-27 12:57 | 55.18313 | 80.30333 | 6993 ft | 259 kts | 101° |
| 2026-04-27 12:57 | 55.18018 | 80.33428 | 6993 ft | 259 kts | 101° |
| 2026-04-27 12:57 | 55.17720 | 80.36536 | 6993 ft | 259 kts | 101° |
| 2026-04-27 12:58 | 55.17421 | 80.39649 | 6993 ft | 259 kts | 101° |
| 2026-04-27 12:58 | 55.17122 | 80.42750 | 6993 ft | 259 kts | 101° |
| 2026-04-27 12:58 | 55.16822 | 80.45856 | 6993 ft | 259 kts | 101° |
| 2026-04-27 12:58 | 55.16519 | 80.48988 | 6993 ft | 259 kts | 101° |
| 2026-04-27 12:59 | 55.16217 | 80.52097 | 6993 ft | 259 kts | 101° |
| 2026-04-27 12:59 | 55.15916 | 80.55187 | 6993 ft | 259 kts | 101° |
| 2026-04-27 12:59 | 55.15613 | 80.58292 | 6993 ft | 259 kts | 101° |
| 2026-04-27 12:59 | 55.15306 | 80.61428 | 6993 ft | 259 kts | 101° |
| 2026-04-27 13:00 | 55.15004 | 80.64501 | 6993 ft | 259 kts | 101° |
| 2026-04-27 13:00 | 55.14697 | 80.67619 | 6993 ft | 259 kts | 102° |
| 2026-04-27 13:00 | 55.14389 | 80.70749 | 6993 ft | 259 kts | 102° |
| 2026-04-27 13:00 | 55.14080 | 80.73864 | 6993 ft | 259 kts | 102° |
| 2026-04-27 13:01 | 55.13773 | 80.76959 | 6993 ft | 259 kts | 102° |
| 2026-04-27 13:01 | 55.13465 | 80.80053 | 6993 ft | 259 kts | 102° |
| 2026-04-27 13:01 | 55.13155 | 80.83157 | 6993 ft | 259 kts | 102° |
| 2026-04-27 13:01 | 55.12846 | 80.86246 | 6993 ft | 259 kts | 102° |
| 2026-04-27 13:02 | 55.12535 | 80.89342 | 6993 ft | 259 kts | 102° |
| 2026-04-27 13:02 | 55.12225 | 80.92422 | 6993 ft | 259 kts | 102° |
| 2026-04-27 13:02 | 55.11918 | 80.95535 | 6992 ft | 259 kts | 100° |
| 2026-04-27 13:02 | 55.11766 | 80.98693 | 6992 ft | 259 kts | 93° |
| 2026-04-27 13:03 | 55.11739 | 81.01833 | 6994 ft | 259 kts | 91° |
| 2026-04-27 13:03 | 55.11739 | 81.04995 | 6993 ft | 259 kts | 91° |
| 2026-04-27 13:03 | 55.11750 | 81.08104 | 6993 ft | 258 kts | 90° |
| 2026-04-27 13:03 | 55.11762 | 81.11263 | 6993 ft | 258 kts | 90° |
| 2026-04-27 13:04 | 55.11774 | 81.14413 | 6993 ft | 258 kts | 90° |
| 2026-04-27 13:04 | 55.11784 | 81.17550 | 6993 ft | 258 kts | 90° |
| 2026-04-27 13:04 | 55.11794 | 81.20682 | 6993 ft | 258 kts | 90° |
| 2026-04-27 13:04 | 55.11803 | 81.23834 | 6993 ft | 258 kts | 90° |
| 2026-04-27 13:05 | 55.11811 | 81.26977 | 6993 ft | 258 kts | 90° |
| 2026-04-27 13:05 | 55.11813 | 81.30177 | 6664 ft | 274 kts | 90° |
| 2026-04-27 13:05 | 55.11817 | 81.33511 | 6414 ft | 269 kts | 90° |
| 2026-04-27 13:05 | 55.11825 | 81.36713 | 6428 ft | 263 kts | 90° |
| 2026-04-27 13:06 | 55.11834 | 81.39936 | 6428 ft | 266 kts | 90° |